Time;durP1;ratioP1;P1;durP2;ratioP2;P2;SDS_P1;SDS_P2;PMS_P1;PMS_P2;Temp;Humidity;BMP_temperature;BMP_pressure;BME280_temperature;BME280_humidity;BME280_pressure;Samples;Min_cycle;Max_cycle;Signal;HPM_P1;HPM_P2
2022/02/18 00:00:54;;;;;;;6.67;1.90;;;4.20;99.90;;;;;;4440791;32;20201;-73
2022/02/18 00:03:23;;;;;;;3.23;1.80;;;4.20;99.90;;;;;;4440446;32;20189;-72
2022/02/18 00:05:51;;;;;;;4.70;1.77;;;4.20;99.90;;;;;;4439911;32;20233;-72
2022/02/18 00:08:18;;;;;;;3.00;1.90;;;4.10;99.90;;;;;;4438899;32;20183;-72
2022/02/18 00:10:46;;;;;;;2.63;1.80;;;4.10;99.90;;;;;;4439320;32;20225;-72
2022/02/18 00:13:14;;;;;;;6.20;2.40;;;4.10;99.90;;;;;;4439465;32;20260;-72
2022/02/18 00:15:41;;;;;;;3.03;1.70;;;4.10;99.90;;;;;;4439650;32;20184;-73
2022/02/18 00:18:08;;;;;;;4.93;1.70;;;4.10;99.90;;;;;;4439319;32;20194;-73
2022/02/18 00:20:36;;;;;;;4.57;1.90;;;4.10;99.90;;;;;;4441111;32;20135;-73
2022/02/18 00:23:05;;;;;;;2.77;1.67;;;4.20;99.90;;;;;;4438660;32;20424;-74
2022/02/18 00:25:38;;;;;;;1.93;1.33;;;4.10;99.90;;;;;;4441494;32;20195;-73
2022/02/18 00:28:06;;;;;;;4.23;1.70;;;4.10;99.90;;;;;;4439998;32;20201;-73
2022/02/18 00:30:34;;;;;;;4.80;1.87;;;4.10;99.90;;;;;;4438191;32;20235;-74
2022/02/18 00:33:01;;;;;;;3.87;1.70;;;4.10;99.90;;;;;;4440180;32;20175;-74
2022/02/18 00:35:28;;;;;;;3.93;1.50;;;4.10;99.90;;;;;;4439604;32;20221;-74
2022/02/18 00:37:55;;;;;;;5.17;1.80;;;4.10;99.90;;;;;;4439302;32;20155;-74
2022/02/18 00:40:25;;;;;;;2.60;1.40;;;4.10;99.90;;;;;;4439883;32;20508;-73
2022/02/18 00:42:53;;;;;;;2.60;1.40;;;4.10;99.90;;;;;;4438900;32;20166;-74
2022/02/18 00:45:21;;;;;;;4.00;1.70;;;4.10;99.90;;;;;;4439378;32;20179;-73
2022/02/18 00:47:49;;;;;;;4.63;1.53;;;4.10;99.90;;;;;;4440536;32;20170;-72
2022/02/18 00:50:21;;;;;;;7.87;2.07;;;4.20;99.90;;;;;;4441149;32;20187;-75
2022/02/18 00:52:49;;;;;;;3.93;1.60;;;4.20;99.90;;;;;;4438696;32;20171;-74
2022/02/18 00:55:18;;;;;;;3.57;1.67;;;4.10;99.90;;;;;;4438495;32;20194;-74
2022/02/18 00:57:45;;;;;;;5.17;1.80;;;4.20;99.90;;;;;;4438873;32;20183;-74
2022/02/18 01:00:16;;;;;;;5.57;1.80;;;4.10;99.90;;;;;;4439110;32;20242;-74
2022/02/18 01:02:44;;;;;;;5.27;1.70;;;4.10;99.90;;;;;;4438761;32;20251;-74
2022/02/18 01:05:12;;;;;;;6.93;1.83;;;4.00;99.90;;;;;;4438290;32;20168;-74
2022/02/18 01:07:40;;;;;;;5.97;1.90;;;4.00;99.90;;;;;;4439173;32;20166;-74
2022/02/18 01:10:08;;;;;;;4.97;1.70;;;4.00;99.90;;;;;;4437996;32;20191;-74
2022/02/18 01:12:35;;;;;;;7.80;2.00;;;4.00;99.90;;;;;;4439218;32;20194;-74
2022/02/18 01:15:05;;;;;;;5.83;2.00;;;4.00;99.90;;;;;;4439832;32;20232;-74
2022/02/18 01:17:33;;;;;;;8.60;2.47;;;4.10;99.90;;;;;;4439249;32;20180;-75
2022/02/18 01:20:00;;;;;;;6.27;1.90;;;4.10;99.90;;;;;;4439934;32;20170;-73
2022/02/18 01:22:27;;;;;;;4.33;1.63;;;4.10;99.90;;;;;;4439085;32;20171;-74
2022/02/18 01:24:54;;;;;;;3.73;1.73;;;4.10;99.90;;;;;;4437697;32;20201;-74
2022/02/18 01:27:21;;;;;;;6.63;1.97;;;4.00;99.90;;;;;;4439605;32;20178;-74
2022/02/18 01:29:48;;;;;;;4.20;1.67;;;4.10;99.90;;;;;;4439199;32;20173;-74
2022/02/18 01:32:15;;;;;;;6.47;1.90;;;4.00;99.90;;;;;;4439285;32;20186;-74
2022/02/18 01:34:43;;;;;;;4.90;1.97;;;4.00;99.90;;;;;;4439821;32;20219;-74
2022/02/18 01:37:10;;;;;;;5.10;1.87;;;4.10;99.90;;;;;;4438283;32;20201;-74
2022/02/18 01:39:37;;;;;;;5.50;2.43;;;4.10;99.90;;;;;;4439985;32;20224;-73
2022/02/18 01:42:05;;;;;;;7.10;2.07;;;4.10;99.90;;;;;;4439797;32;20190;-73
2022/02/18 01:44:37;;;;;;;6.60;2.00;;;4.10;99.90;;;;;;4425613;32;20178;-73
2022/02/18 01:47:06;;;;;;;7.27;1.90;;;4.10;99.90;;;;;;4438321;32;20179;-74
2022/02/18 01:49:34;;;;;;;5.50;1.70;;;4.20;99.90;;;;;;4441648;32;20223;-75
2022/02/18 01:52:01;;;;;;;6.43;1.60;;;4.20;99.90;;;;;;4451823;32;20222;-75
2022/02/18 01:54:28;;;;;;;5.77;1.70;;;4.20;99.90;;;;;;4441228;32;20175;-75
2022/02/18 01:56:55;;;;;;;4.60;1.60;;;4.20;99.90;;;;;;4444701;32;20171;-75
2022/02/18 01:59:22;;;;;;;4.43;1.53;;;4.20;99.90;;;;;;4442538;32;20241;-75
2022/02/18 02:01:50;;;;;;;7.93;1.67;;;4.20;99.90;;;;;;4441251;32;20242;-75
2022/02/18 02:04:19;;;;;;;5.40;1.50;;;4.20;99.90;;;;;;4442434;32;20175;-75
2022/02/18 02:06:47;;;;;;;5.20;1.57;;;4.20;99.90;;;;;;4440688;32;20184;-75
2022/02/18 02:09:14;;;;;;;7.20;1.60;;;4.20;99.90;;;;;;4442552;32;20253;-75
2022/02/18 02:11:42;;;;;;;7.27;1.50;;;4.20;99.90;;;;;;4443364;32;20195;-75
2022/02/18 02:14:09;;;;;;;5.63;1.70;;;4.20;99.90;;;;;;4442707;32;20228;-75
2022/02/18 02:16:36;;;;;;;6.37;2.10;;;4.30;99.90;;;;;;4442280;32;20236;-75
2022/02/18 02:19:04;;;;;;;9.97;1.60;;;4.20;99.90;;;;;;4441003;32;20245;-74
2022/02/18 02:21:31;;;;;;;4.23;1.40;;;4.20;99.90;;;;;;4441923;32;20139;-74
2022/02/18 02:23:58;;;;;;;7.23;1.67;;;4.20;99.90;;;;;;4442348;32;20172;-74
2022/02/18 02:26:26;;;;;;;6.30;1.50;;;4.20;99.90;;;;;;4441428;32;20223;-74
2022/02/18 02:28:53;;;;;;;9.47;1.70;;;4.20;99.90;;;;;;4440662;32;20179;-75
2022/02/18 02:31:24;;;;;;;8.30;1.80;;;4.30;99.90;;;;;;4440681;32;20239;-75
2022/02/18 02:33:54;;;;;;;8.03;1.67;;;4.30;99.90;;;;;;4440218;32;20313;-75
2022/02/18 02:36:22;;;;;;;11.20;1.50;;;4.40;99.90;;;;;;4439911;32;20505;-75
2022/02/18 02:38:51;;;;;;;5.50;1.60;;;4.40;99.90;;;;;;4440320;32;20180;-75
2022/02/18 02:41:18;;;;;;;8.23;1.57;;;4.50;99.90;;;;;;4440855;32;20227;-73
2022/02/18 02:43:46;;;;;;;9.20;1.80;;;4.50;99.90;;;;;;4441752;32;20150;-74
2022/02/18 02:46:13;;;;;;;6.73;1.53;;;4.40;99.90;;;;;;4452281;32;20221;-73
2022/02/18 02:48:41;;;;;;;3.87;1.60;;;4.30;99.90;;;;;;4441830;32;20192;-73
2022/02/18 02:51:10;;;;;;;4.90;1.50;;;4.30;99.90;;;;;;4450338;32;20160;-73
2022/02/18 02:53:39;;;;;;;8.90;1.83;;;4.20;99.90;;;;;;4439881;32;20433;-74
2022/02/18 02:56:07;;;;;;;5.43;1.60;;;4.20;99.90;;;;;;4439998;32;20239;-73
2022/02/18 02:58:37;;;;;;;8.03;1.80;;;4.10;99.90;;;;;;4441025;32;20259;-73
2022/02/18 03:01:07;;;;;;;7.33;1.77;;;4.00;99.90;;;;;;4439492;32;20456;-73
2022/02/18 03:03:34;;;;;;;8.83;2.10;;;4.00;99.90;;;;;;4440635;32;20222;-73
2022/02/18 03:06:02;;;;;;;8.77;2.03;;;3.90;99.90;;;;;;4441606;32;20429;-73
2022/02/18 03:08:29;;;;;;;5.60;1.80;;;3.80;99.90;;;;;;4440283;32;20170;-73
2022/02/18 03:13:47;;;;;;;11.03;2.20;;;3.80;99.90;;;;;;4440979;32;20166;-73
2022/02/18 03:16:16;;;;;;;7.47;1.53;;;3.80;99.90;;;;;;4440576;32;20459;-73
2022/02/18 03:18:45;;;;;;;9.83;1.83;;;3.70;99.90;;;;;;4439615;32;20484;-73
2022/02/18 03:21:13;;;;;;;4.30;1.60;;;3.70;99.90;;;;;;4439906;32;20179;-73
2022/02/18 03:23:40;;;;;;;8.83;1.90;;;3.60;99.90;;;;;;4441144;32;20227;-73
2022/02/18 03:26:08;;;;;;;9.37;1.77;;;3.50;99.90;;;;;;4441437;32;20200;-73
2022/02/18 03:28:35;;;;;;;9.50;1.80;;;3.50;99.90;;;;;;4440764;32;20251;-73
2022/02/18 03:31:03;;;;;;;8.33;1.93;;;3.40;99.90;;;;;;4439411;32;20460;-73
2022/02/18 03:33:30;;;;;;;10.23;2.03;;;3.30;99.90;;;;;;4440469;32;20202;-73
2022/02/18 03:35:58;;;;;;;12.03;2.13;;;3.30;99.90;;;;;;4439800;32;20422;-72
2022/02/18 03:38:25;;;;;;;12.03;1.93;;;3.30;99.90;;;;;;4439462;32;20197;-71
2022/02/18 03:40:52;;;;;;;9.33;1.90;;;3.30;99.90;;;;;;4440757;32;20169;-72
2022/02/18 03:43:20;;;;;;;12.77;1.77;;;3.30;99.90;;;;;;4439435;32;20186;-72
2022/02/18 03:45:48;;;;;;;7.80;2.00;;;3.30;99.90;;;;;;4441142;32;20410;-72
2022/02/18 03:48:15;;;;;;;9.00;1.90;;;3.40;99.90;;;;;;4441071;32;20245;-71
2022/02/18 03:50:42;;;;;;;8.40;1.80;;;3.40;99.90;;;;;;4440891;32;20354;-72
2022/02/18 03:53:10;;;;;;;10.03;2.53;;;3.40;99.90;;;;;;4440064;32;20516;-72
2022/02/18 03:55:38;;;;;;;10.37;2.27;;;3.40;99.90;;;;;;4439340;32;20183;-72
2022/02/18 03:58:05;;;;;;;10.10;2.27;;;3.50;99.90;;;;;;4440459;32;20142;-72
2022/02/18 04:00:33;;;;;;;6.73;2.10;;;3.50;99.90;;;;;;4440439;32;20210;-72
2022/02/18 04:03:00;;;;;;;8.73;1.87;;;3.50;99.90;;;;;;4439033;32;20214;-72
2022/02/18 04:05:27;;;;;;;8.40;1.93;;;3.60;99.90;;;;;;4439513;32;20158;-72
2022/02/18 04:07:54;;;;;;;8.97;1.90;;;3.60;99.90;;;;;;4439239;32;20205;-72
2022/02/18 04:10:22;;;;;;;8.77;2.10;;;3.60;99.90;;;;;;4440349;32;20195;-72
2022/02/18 04:12:49;;;;;;;10.13;1.93;;;3.60;99.90;;;;;;4438575;32;20191;-72
2022/02/18 04:15:16;;;;;;;8.80;1.77;;;3.70;99.90;;;;;;4439152;32;20242;-73
2022/02/18 04:17:44;;;;;;;7.67;1.47;;;3.80;99.90;;;;;;4439401;32;20176;-73
2022/02/18 04:20:12;;;;;;;5.07;1.80;;;3.80;99.90;;;;;;4439900;32;20241;-72
2022/02/18 04:22:59;;;;;;;8.30;1.67;;;3.80;99.90;;;;;;4438447;32;20174;-73
2022/02/18 04:25:26;;;;;;;7.90;1.63;;;3.80;99.90;;;;;;4439883;32;20180;-73
2022/02/18 04:27:55;;;;;;;8.67;1.93;;;3.90;99.90;;;;;;4440613;32;20175;-73
2022/02/18 04:30:23;;;;;;;8.37;1.57;;;4.00;99.90;;;;;;4426364;32;20509;-73
2022/02/18 04:32:50;;;;;;;8.87;1.80;;;4.00;99.90;;;;;;4439323;32;20289;-73
2022/02/18 04:35:19;;;;;;;7.67;1.63;;;4.00;99.90;;;;;;4438842;32;20162;-73
2022/02/18 04:37:46;;;;;;;7.83;1.70;;;4.00;99.90;;;;;;4439272;32;20167;-73
2022/02/18 04:40:15;;;;;;;6.57;1.77;;;4.00;99.90;;;;;;4438813;32;20166;-73
2022/02/18 04:42:43;;;;;;;6.87;1.97;;;4.00;99.90;;;;;;4438962;32;20228;-72
2022/02/18 04:45:10;;;;;;;10.13;1.80;;;3.90;99.90;;;;;;4438955;32;20596;-73
2022/02/18 04:47:38;;;;;;;6.00;1.90;;;3.90;99.90;;;;;;4438680;32;20513;-73
2022/02/18 04:50:06;;;;;;;7.70;1.80;;;3.90;99.90;;;;;;4440401;32;20178;-73
2022/02/18 04:52:36;;;;;;;6.50;1.57;;;3.90;99.90;;;;;;4438848;32;20196;-73
2022/02/18 04:55:05;;;;;;;6.53;1.60;;;3.90;99.90;;;;;;4438409;32;20263;-73
2022/02/18 04:57:37;;;;;;;8.20;1.70;;;3.90;99.90;;;;;;4438510;32;20512;-73
2022/02/18 05:00:06;;;;;;;7.83;1.90;;;3.90;99.90;;;;;;4439733;32;20171;-73
2022/02/18 05:02:33;;;;;;;7.90;1.80;;;3.90;99.90;;;;;;4438275;32;20235;-73
2022/02/18 05:05:02;;;;;;;7.33;1.60;;;4.00;99.90;;;;;;4438910;32;20172;-73
2022/02/18 05:07:29;;;;;;;8.00;1.70;;;4.00;99.90;;;;;;4439476;32;20178;-72
2022/02/18 05:09:56;;;;;;;7.77;1.90;;;4.10;99.90;;;;;;4440187;32;20502;-73
2022/02/18 05:12:23;;;;;;;6.47;1.70;;;4.10;99.90;;;;;;4439439;32;20229;-73
2022/02/18 05:14:51;;;;;;;6.93;1.60;;;4.10;99.90;;;;;;4439165;32;20190;-73
2022/02/18 05:17:18;;;;;;;3.70;1.50;;;4.10;99.90;;;;;;4440524;32;20484;-70
2022/02/18 05:19:45;;;;;;;8.97;1.63;;;4.10;99.90;;;;;;4438045;32;20233;-69
2022/02/18 05:22:13;;;;;;;10.00;1.97;;;4.10;99.90;;;;;;4439766;32;20186;-69
2022/02/18 05:24:40;;;;;;;7.43;2.07;;;4.20;99.90;;;;;;4438100;32;20168;-73
2022/02/18 05:27:07;;;;;;;9.17;1.77;;;4.10;99.90;;;;;;4437814;32;20174;-73
2022/02/18 05:29:35;;;;;;;7.23;1.60;;;4.20;99.90;;;;;;4439834;32;20197;-73
2022/02/18 05:32:03;;;;;;;6.90;2.00;;;4.10;99.90;;;;;;4438769;32;20179;-74
2022/02/18 05:34:31;;;;;;;7.40;1.80;;;4.10;99.90;;;;;;4438587;32;20168;-74
2022/02/18 05:36:58;;;;;;;8.23;2.37;;;4.20;99.90;;;;;;4437916;32;20601;-74
2022/02/18 05:39:26;;;;;;;16.63;3.63;;;4.10;99.90;;;;;;4439817;32;20241;-73
2022/02/18 05:41:53;;;;;;;5.43;1.67;;;4.20;99.90;;;;;;4439564;32;20174;-74
2022/02/18 05:44:20;;;;;;;6.43;1.60;;;4.20;99.90;;;;;;4439941;32;20196;-73
2022/02/18 05:46:48;;;;;;;6.20;2.00;;;4.10;99.90;;;;;;4438941;32;20193;-73
2022/02/18 05:49:15;;;;;;;7.03;1.67;;;4.10;99.90;;;;;;4439024;32;20211;-73
2022/02/18 05:51:42;;;;;;;6.53;1.87;;;4.10;99.90;;;;;;4438869;32;20175;-73
2022/02/18 05:54:09;;;;;;;7.80;1.70;;;4.10;99.90;;;;;;4438076;32;20186;-73
2022/02/18 05:56:37;;;;;;;9.47;2.07;;;4.10;99.90;;;;;;4438567;32;20162;-73
2022/02/18 05:59:04;;;;;;;9.17;2.13;;;4.10;99.90;;;;;;4438931;32;20198;-73
2022/02/18 06:01:31;;;;;;;6.43;1.43;;;4.00;99.90;;;;;;4437742;32;20212;-73
2022/02/18 06:03:58;;;;;;;8.63;1.60;;;4.00;99.90;;;;;;4438077;32;20171;-73
2022/02/18 06:06:27;;;;;;;6.13;1.73;;;4.00;99.90;;;;;;4440570;32;20205;-73
2022/02/18 06:08:54;;;;;;;11.33;1.93;;;4.00;99.90;;;;;;4438474;32;20251;-73
2022/02/18 06:11:21;;;;;;;9.13;2.00;;;4.00;99.90;;;;;;4439518;32;20139;-73
2022/02/18 06:13:48;;;;;;;9.43;1.80;;;4.00;99.90;;;;;;4439693;32;20171;-73
2022/02/18 06:16:15;;;;;;;5.90;1.73;;;4.00;99.90;;;;;;4439280;32;20193;-73
2022/02/18 06:18:42;;;;;;;9.87;2.23;;;4.10;99.90;;;;;;4440599;32;20136;-73
2022/02/18 06:21:11;;;;;;;6.97;1.83;;;4.10;99.90;;;;;;4438899;32;20151;-73
2022/02/18 06:23:38;;;;;;;8.23;1.90;;;4.20;99.90;;;;;;4438695;32;20263;-73
2022/02/18 06:26:06;;;;;;;9.27;1.90;;;4.20;99.90;;;;;;4439290;32;20478;-73
2022/02/18 06:28:33;;;;;;;7.67;1.97;;;4.20;99.90;;;;;;4439416;32;20171;-74
2022/02/18 06:31:01;;;;;;;7.97;1.90;;;4.20;99.90;;;;;;4440606;32;20167;-73
2022/02/18 06:33:28;;;;;;;11.80;2.27;;;4.20;99.90;;;;;;4438123;32;20202;-73
2022/02/18 06:35:55;;;;;;;10.60;2.00;;;4.20;99.90;;;;;;4440333;32;20178;-73
2022/02/18 06:38:22;;;;;;;7.43;1.87;;;4.20;99.90;;;;;;4442118;32;20148;-73
2022/02/18 06:40:49;;;;;;;10.23;2.20;;;4.20;99.90;;;;;;4440946;32;20175;-73
2022/02/18 06:43:16;;;;;;;6.10;1.40;;;4.30;99.90;;;;;;4442042;32;20151;-74
2022/02/18 06:45:44;;;;;;;9.30;1.90;;;4.30;99.90;;;;;;4441452;32;20170;-74
2022/02/18 06:48:14;;;;;;;9.10;1.90;;;4.30;99.90;;;;;;4441354;32;20166;-74
2022/02/18 06:50:42;;;;;;;8.17;1.97;;;4.30;99.90;;;;;;4442293;32;20221;-74
2022/02/18 06:53:09;;;;;;;10.43;1.97;;;4.40;99.90;;;;;;4441792;32;20224;-74
2022/02/18 06:55:36;;;;;;;8.77;2.37;;;4.40;99.90;;;;;;4440095;32;20216;-74
2022/02/18 06:58:03;;;;;;;9.43;2.00;;;4.40;99.90;;;;;;4440472;32;20174;-74
2022/02/18 07:00:31;;;;;;;7.43;1.90;;;4.40;99.90;;;;;;4440683;32;20243;-75
2022/02/18 07:02:58;;;;;;;8.83;1.90;;;4.40;99.90;;;;;;4440653;32;20180;-75
2022/02/18 07:05:26;;;;;;;10.10;2.20;;;4.40;99.90;;;;;;4442107;32;20230;-74
2022/02/18 07:07:53;;;;;;;7.30;2.03;;;4.40;99.90;;;;;;4440159;32;20166;-75
2022/02/18 07:10:20;;;;;;;12.27;2.20;;;4.40;99.90;;;;;;4440046;32;20236;-76
2022/02/18 07:12:47;;;;;;;9.63;2.20;;;4.50;99.90;;;;;;4440795;32;20250;-76
2022/02/18 07:15:14;;;;;;;8.20;1.87;;;4.50;99.90;;;;;;4439876;32;20221;-76
2022/02/18 07:17:43;;;;;;;10.63;2.50;;;4.50;99.90;;;;;;4439766;32;20230;-76
2022/02/18 07:20:12;;;;;;;12.83;2.20;;;4.40;99.90;;;;;;4440221;32;20171;-76
2022/02/18 07:22:41;;;;;;;8.80;2.03;;;4.50;99.90;;;;;;4395505;32;20235;-75
2022/02/18 07:25:14;;;;;;;10.07;2.07;;;4.50;99.90;;;;;;4396137;32;20220;-76
2022/02/18 07:27:43;;;;;;;7.20;2.20;;;4.50;99.90;;;;;;4406346;32;20166;-75
2022/02/18 07:30:13;;;;;;;7.63;2.00;;;4.50;99.90;;;;;;4395422;32;20294;-76
2022/02/18 07:32:43;;;;;;;8.77;2.10;;;4.50;99.90;;;;;;4408637;32;20196;-76
2022/02/18 07:35:11;;;;;;;8.50;2.20;;;4.50;99.90;;;;;;4395828;32;20180;-76
2022/02/18 07:37:38;;;;;;;8.83;1.77;;;4.60;99.90;;;;;;4408154;32;20162;-75
2022/02/18 07:40:06;;;;;;;9.37;2.20;;;4.60;99.90;;;;;;4415285;32;20147;-76
2022/02/18 07:42:34;;;;;;;8.40;1.80;;;4.70;99.90;;;;;;4442646;32;20443;-76
2022/02/18 07:45:01;;;;;;;10.30;2.20;;;4.70;99.90;;;;;;4440584;32;20171;-75
2022/02/18 07:47:28;;;;;;;6.53;1.77;;;4.70;99.90;;;;;;4441459;32;20186;-76
2022/02/18 07:49:57;;;;;;;6.50;1.93;;;4.80;99.90;;;;;;4440662;32;20151;-76
2022/02/18 07:52:24;;;;;;;6.70;1.73;;;4.80;99.90;;;;;;4440426;32;20243;-75
2022/02/18 07:54:51;;;;;;;8.60;2.00;;;4.80;99.90;;;;;;4440489;32;20143;-76
2022/02/18 07:57:18;;;;;;;7.23;1.90;;;4.80;99.90;;;;;;4441517;32;20159;-76
2022/02/18 07:59:47;;;;;;;11.43;2.00;;;4.80;99.90;;;;;;4442010;32;20375;-76
2022/02/18 08:02:15;;;;;;;11.40;2.23;;;4.80;99.90;;;;;;4440056;32;20180;-75
2022/02/18 08:04:42;;;;;;;6.83;2.10;;;4.80;99.90;;;;;;4439353;32;20217;-75
2022/02/18 08:07:13;;;;;;;7.40;2.10;;;4.80;99.90;;;;;;4439871;32;20170;-76
2022/02/18 08:09:40;;;;;;;8.73;1.87;;;4.80;99.90;;;;;;4439072;32;20176;-77
2022/02/18 08:12:08;;;;;;;8.73;2.07;;;4.90;99.90;;;;;;4439149;32;20453;-77
2022/02/18 08:14:35;;;;;;;7.07;2.00;;;4.80;99.90;;;;;;4439373;32;20176;-76
2022/02/18 08:17:02;;;;;;;10.80;1.80;;;4.90;99.90;;;;;;4439503;32;20190;-76
2022/02/18 08:19:29;;;;;;;11.30;2.03;;;4.90;99.90;;;;;;4439289;32;20190;-76
2022/02/18 08:21:56;;;;;;;8.83;2.00;;;4.90;99.90;;;;;;4440902;32;20146;-76
2022/02/18 08:24:25;;;;;;;8.20;2.03;;;4.90;99.90;;;;;;4446150;32;20201;-76
2022/02/18 08:26:57;;;;;;;6.70;1.80;;;4.90;99.90;;;;;;4454376;32;20244;-78
2022/02/18 08:29:25;;;;;;;9.07;2.03;;;4.90;99.90;;;;;;4455112;32;20135;-76
2022/02/18 08:31:54;;;;;;;10.27;2.10;;;5.00;99.90;;;;;;4455892;32;20162;-76
2022/02/18 08:34:24;;;;;;;8.17;1.80;;;5.00;99.90;;;;;;4456208;32;20187;-76
2022/02/18 08:36:51;;;;;;;8.23;1.87;;;5.00;99.90;;;;;;4454883;32;20450;-76
2022/02/18 08:39:19;;;;;;;10.60;1.87;;;5.10;99.90;;;;;;4454112;32;20178;-76
2022/02/18 08:41:46;;;;;;;5.17;2.03;;;5.20;99.90;;;;;;4455107;32;20174;-76
2022/02/18 08:44:14;;;;;;;8.40;1.93;;;5.20;99.90;;;;;;4454361;32;20170;-76
2022/02/18 08:46:42;;;;;;;12.27;1.87;;;5.30;99.90;;;;;;4454194;32;20256;-76
2022/02/18 08:49:10;;;;;;;7.80;1.70;;;5.30;99.90;;;;;;4454312;32;20195;-76
2022/02/18 08:51:38;;;;;;;6.60;2.10;;;5.40;99.90;;;;;;4454680;32;20199;-76
2022/02/18 08:54:06;;;;;;;8.60;2.20;;;5.40;99.90;;;;;;4456218;32;20240;-76
2022/02/18 08:56:34;;;;;;;8.53;1.97;;;5.40;99.90;;;;;;4454293;32;20166;-76
2022/02/18 08:59:03;;;;;;;7.40;1.90;;;5.50;99.90;;;;;;4454881;32;20221;-76
2022/02/18 09:01:30;;;;;;;8.10;1.90;;;5.40;99.90;;;;;;4454276;32;20187;-76
2022/02/18 09:03:57;;;;;;;5.17;1.87;;;5.50;99.90;;;;;;4455796;32;20169;-76
2022/02/18 09:06:24;;;;;;;7.50;2.07;;;5.50;99.90;;;;;;4454583;32;20182;-77
2022/02/18 09:08:52;;;;;;;5.47;1.90;;;5.50;99.90;;;;;;4454718;32;20223;-76
2022/02/18 09:11:20;;;;;;;10.10;1.87;;;5.50;99.90;;;;;;4453561;32;20500;-77
2022/02/18 09:13:47;;;;;;;5.67;1.90;;;5.40;99.90;;;;;;4454901;32;20208;-77
2022/02/18 09:16:15;;;;;;;6.63;1.83;;;5.40;99.90;;;;;;4453826;32;20223;-76
2022/02/18 09:18:42;;;;;;;13.37;2.23;;;5.40;99.90;;;;;;4455406;32;20407;-76
2022/02/18 09:21:09;;;;;;;7.37;2.00;;;5.30;99.90;;;;;;4455577;32;20186;-76
2022/02/18 09:23:56;;;;;;;8.07;2.47;;;5.30;99.90;;;;;;4454913;32;20238;-77
2022/02/18 09:26:26;;;;;;;8.53;1.93;;;5.40;99.90;;;;;;4454421;32;20235;-77
2022/02/18 09:28:55;;;;;;;7.10;1.77;;;5.30;99.90;;;;;;4453486;32;20170;-77
2022/02/18 09:31:22;;;;;;;7.17;2.20;;;5.20;99.90;;;;;;4454478;32;20435;-76
2022/02/18 09:33:50;;;;;;;9.53;2.80;;;5.20;99.90;;;;;;4454935;32;20384;-76
2022/02/18 09:36:18;;;;;;;9.47;1.80;;;5.30;99.90;;;;;;4454398;32;20425;-76
2022/02/18 09:38:45;;;;;;;7.03;2.27;;;5.20;99.90;;;;;;4453881;32;20175;-77
2022/02/18 09:41:12;;;;;;;7.20;2.00;;;5.20;99.90;;;;;;4454934;32;20182;-76
2022/02/18 09:43:41;;;;;;;7.23;1.83;;;5.20;99.90;;;;;;4453724;32;20587;-76
2022/02/18 09:46:10;;;;;;;12.07;2.20;;;5.20;99.90;;;;;;4452887;32;20176;-77
2022/02/18 09:48:38;;;;;;;12.30;2.60;;;5.30;99.90;;;;;;4454158;32;20190;-76
2022/02/18 09:51:07;;;;;;;10.50;2.13;;;5.30;99.90;;;;;;4454793;32;20136;-76
2022/02/18 09:53:35;;;;;;;12.07;2.37;;;5.30;99.90;;;;;;4455145;32;20422;-77
2022/02/18 09:56:06;;;;;;;9.77;2.23;;;5.30;99.90;;;;;;4453889;32;20574;-77
2022/02/18 09:58:35;;;;;;;7.00;2.10;;;5.40;99.90;;;;;;4453934;32;20449;-77
2022/02/18 10:01:03;;;;;;;11.50;2.20;;;5.50;99.90;;;;;;4455137;32;20280;-77
2022/02/18 10:03:31;;;;;;;7.13;2.40;;;5.50;99.90;;;;;;4453345;32;20170;-78
2022/02/18 10:06:02;;;;;;;8.40;2.03;;;5.50;99.90;;;;;;4454940;32;20228;-78
2022/02/18 10:08:29;;;;;;;8.03;2.30;;;5.40;99.90;;;;;;4453161;32;20167;-78
2022/02/18 10:11:00;;;;;;;9.50;2.00;;;5.40;99.90;;;;;;4456902;32;20172;-78
2022/02/18 10:13:34;;;;;;;9.37;2.03;;;5.50;99.90;;;;;;4457182;32;20193;-77
2022/02/18 10:16:12;;;;;;;6.83;1.90;;;5.60;99.90;;;;;;4458128;32;20134;-78
2022/02/18 10:18:52;;;;;;;8.00;2.17;;;5.50;99.90;;;;;;4457185;32;20534;-77
2022/02/18 10:21:24;;;;;;;10.23;2.50;;;5.50;99.90;;;;;;4456894;32;20174;-78
2022/02/18 10:24:04;;;;;;;8.33;2.37;;;5.50;99.90;;;;;;4456207;32;20415;-78
2022/02/18 10:26:38;;;;;;;14.33;2.40;;;5.40;99.90;;;;;;4456388;32;20176;-77
2022/02/18 10:29:07;;;;;;;7.97;2.20;;;5.50;99.90;;;;;;4455934;32;20461;-77
2022/02/18 10:31:35;;;;;;;7.93;2.40;;;5.50;99.90;;;;;;4455375;32;20178;-77
2022/02/18 10:34:04;;;;;;;8.40;2.40;;;5.60;99.90;;;;;;4457449;32;20581;-77
2022/02/18 10:36:35;;;;;;;10.53;3.20;;;5.60;99.90;;;;;;4457231;32;20216;-78
2022/02/18 10:39:27;;;;;;;8.30;2.53;;;5.60;99.90;;;;;;4455864;32;20508;-77
2022/02/18 10:41:59;;;;;;;10.37;2.43;;;5.60;99.90;;;;;;4457271;32;20152;-77
2022/02/18 10:44:28;;;;;;;10.03;2.23;;;5.60;99.90;;;;;;4458459;32;20552;-77
2022/02/18 10:46:55;;;;;;;10.40;2.53;;;5.50;99.90;;;;;;4455883;32;20222;-77
2022/02/18 10:49:26;;;;;;;9.97;2.90;;;5.50;99.90;;;;;;4458058;32;20180;-77
2022/02/18 10:51:54;;;;;;;6.67;2.33;;;5.50;99.90;;;;;;4457908;32;20197;-77
2022/02/18 10:54:34;;;;;;;11.17;2.73;;;5.60;99.90;;;;;;4457654;32;20193;-77
2022/02/18 10:57:22;;;;;;;11.67;2.40;;;5.70;99.90;;;;;;4457203;32;20201;-77
2022/02/18 10:59:50;;;;;;;13.80;2.80;;;5.80;99.90;;;;;;4455933;32;20592;-77
2022/02/18 11:02:37;;;;;;;12.87;2.77;;;5.90;99.90;;;;;;4456457;32;20258;-77
2022/02/18 11:05:28;;;;;;;8.20;2.83;;;6.10;99.90;;;;;;4456137;32;20172;-78
2022/02/18 11:07:56;;;;;;;11.50;2.30;;;6.30;99.90;;;;;;4456077;32;20198;-77
2022/02/18 11:10:39;;;;;;;8.80;2.47;;;6.30;99.90;;;;;;4457304;32;20161;-77
2022/02/18 11:13:06;;;;;;;10.23;2.67;;;6.10;99.90;;;;;;4458049;32;20153;-77
2022/02/18 11:15:35;;;;;;;8.60;2.17;;;6.10;99.90;;;;;;4456554;32;20211;-77
2022/02/18 11:18:02;;;;;;;7.83;2.40;;;6.10;99.90;;;;;;4456780;32;20503;-77
2022/02/18 11:20:29;;;;;;;8.60;2.17;;;6.10;99.90;;;;;;4455204;32;20172;-77
2022/02/18 11:22:58;;;;;;;10.57;2.37;;;6.10;99.90;;;;;;4455342;32;20168;-77
2022/02/18 11:25:25;;;;;;;9.80;2.57;;;5.90;99.90;;;;;;4456153;32;20178;-77
2022/02/18 11:27:52;;;;;;;10.13;2.60;;;5.90;99.90;;;;;;4456314;32;20174;-77
2022/02/18 11:30:20;;;;;;;8.27;2.33;;;5.90;99.90;;;;;;4455203;32;20170;-77
2022/02/18 11:33:03;;;;;;;6.30;2.07;;;5.80;99.90;;;;;;4454978;32;20269;-77
2022/02/18 11:36:24;;;;;;;9.60;2.50;;;5.90;99.90;;;;;;4456507;32;20469;-77
2022/02/18 11:39:38;;;;;;;9.30;2.60;;;5.70;99.90;;;;;;4380001;32;20203;-77
2022/02/18 11:42:26;;;;;;;6.03;2.50;;;5.70;99.90;;;;;;4347924;33;20268;-77
2022/02/18 11:44:55;;;;;;;8.93;2.63;;;5.70;99.90;;;;;;4336015;33;20173;-77
2022/02/18 11:47:24;;;;;;;9.30;2.43;;;5.80;99.90;;;;;;4348872;33;20154;-77
2022/02/18 11:49:52;;;;;;;9.00;2.30;;;5.90;99.90;;;;;;4337193;33;20209;-77
2022/02/18 11:52:21;;;;;;;10.97;2.70;;;6.40;99.90;;;;;;4348948;33;20161;-77
2022/02/18 11:54:48;;;;;;;13.23;2.87;;;7.60;99.90;;;;;;4348572;33;20192;-77
2022/02/18 11:57:19;;;;;;;10.20;2.20;;;8.60;99.90;;;;;;4348332;33;20160;-77
2022/02/18 12:00:01;;;;;;;10.87;2.20;;;9.10;99.90;;;;;;4335760;33;20172;-77
2022/02/18 12:02:35;;;;;;;10.67;2.17;;;10.00;99.90;;;;;;4347326;33;20763;-77
2022/02/18 12:05:16;;;;;;;5.33;1.70;;;11.40;99.90;;;;;;4335762;33;20176;-78
2022/02/18 12:07:53;;;;;;;7.87;2.10;;;10.30;99.90;;;;;;4335105;33;20183;-77
2022/02/18 12:10:30;;;;;;;11.53;2.40;;;9.30;99.90;;;;;;4387481;32;20194;-77
2022/02/18 12:13:06;;;;;;;9.60;2.10;;;10.10;99.90;;;;;;4407300;32;20159;-78
2022/02/18 12:15:35;;;;;;;6.67;2.20;;;9.90;99.90;;;;;;4395302;32;20618;-77
2022/02/18 12:18:08;;;;;;;7.67;2.10;;;9.80;99.90;;;;;;4418224;32;20244;-77
2022/02/18 12:20:43;;;;;;;9.57;2.20;;;10.10;99.90;;;;;;4457673;32;20146;-77
2022/02/18 12:23:24;;;;;;;7.10;2.30;;;11.20;98.10;;;;;;4455150;32;20196;-77
2022/02/18 12:26:24;;;;;;;4.87;1.80;;;11.60;92.20;;;;;;4455203;32;20542;-77
2022/02/18 12:29:11;;;;;;;7.90;2.00;;;11.80;93.50;;;;;;4455424;32;20173;-77
2022/02/18 12:31:52;;;;;;;7.20;1.93;;;12.40;85.60;;;;;;4454785;32;20331;-77
2022/02/18 12:34:30;;;;;;;7.07;1.80;;;12.00;86.90;;;;;;4454586;32;20174;-77
2022/02/18 12:36:57;;;;;;;10.60;2.33;;;11.40;87.00;;;;;;4455230;32;20534;-76
2022/02/18 12:39:38;;;;;;;5.63;1.80;;;11.00;93.10;;;;;;4454283;32;20225;-76
2022/02/18 12:42:18;;;;;;;10.13;2.33;;;11.20;90.30;;;;;;4455590;32;20181;-76
2022/02/18 12:44:58;;;;;;;10.33;2.20;;;11.00;92.00;;;;;;4455525;32;20182;-76
2022/02/18 12:47:31;;;;;;;10.10;2.73;;;11.20;90.40;;;;;;4455591;32;20142;-76
2022/02/18 12:50:07;;;;;;;8.50;2.10;;;10.50;92.20;;;;;;4454819;32;20174;-76
2022/02/18 12:52:36;;;;;;;5.13;1.80;;;11.30;91.70;;;;;;4453760;32;20158;-77
2022/02/18 12:55:06;;;;;;;7.77;1.90;;;12.50;86.10;;;;;;4454193;32;20186;-76
2022/02/18 12:57:42;;;;;;;5.30;1.70;;;12.60;75.90;;;;;;4454621;32;20225;-76
2022/02/18 13:00:18;;;;;;;5.93;1.87;;;12.20;75.50;;;;;;4453347;32;20212;-76
2022/02/18 13:02:53;;;;;;;5.67;1.73;;;11.60;74.40;;;;;;4454084;32;20239;-77
2022/02/18 13:05:28;;;;;;;6.60;1.90;;;11.00;79.60;;;;;;4454075;32;20178;-77
2022/02/18 13:08:04;;;;;;;9.33;1.97;;;10.40;81.80;;;;;;4454156;32;20170;-77
2022/02/18 13:10:36;;;;;;;6.13;1.90;;;10.60;83.00;;;;;;4455467;32;20184;-77